sensor_id;sensor_type;location;lat;lon;timestamp;temperature;humidity
4175;DHT22;2101;48.290;14.382;2024-02-04T00:00:10;6.60;99.90
4175;DHT22;2101;48.290;14.382;2024-02-04T00:02:39;6.60;99.90
4175;DHT22;2101;48.290;14.382;2024-02-04T00:05:07;6.60;99.90
4175;DHT22;2101;48.290;14.382;2024-02-04T00:07:36;6.60;99.90
4175;DHT22;2101;48.290;14.382;2024-02-04T00:10:03;6.50;99.90
4175;DHT22;2101;48.290;14.382;2024-02-04T00:12:30;6.50;99.90
4175;DHT22;2101;48.290;14.382;2024-02-04T00:14:55;6.50;99.90
4175;DHT22;2101;48.290;14.382;2024-02-04T00:17:21;6.50;99.90
4175;DHT22;2101;48.290;14.382;2024-02-04T00:19:51;6.40;99.90
4175;DHT22;2101;48.290;14.382;2024-02-04T00:22:19;6.40;99.90
4175;DHT22;2101;48.290;14.382;2024-02-04T00:24:45;6.40;99.90
4175;DHT22;2101;48.290;14.382;2024-02-04T00:27:13;6.40;99.90
4175;DHT22;2101;48.290;14.382;2024-02-04T00:29:40;6.50;99.90
4175;DHT22;2101;48.290;14.382;2024-02-04T00:32:06;6.40;99.90
4175;DHT22;2101;48.290;14.382;2024-02-04T00:34:32;6.40;99.90
4175;DHT22;2101;48.290;14.382;2024-02-04T00:37:00;6.40;99.90
4175;DHT22;2101;48.290;14.382;2024-02-04T00:39:26;6.40;99.90
4175;DHT22;2101;48.290;14.382;2024-02-04T00:41:52;6.40;99.90
4175;DHT22;2101;48.290;14.382;2024-02-04T00:44:18;6.40;99.90
4175;DHT22;2101;48.290;14.382;2024-02-04T00:46:50;6.40;99.90
4175;DHT22;2101;48.290;14.382;2024-02-04T00:49:16;6.40;99.90
4175;DHT22;2101;48.290;14.382;2024-02-04T00:54:54;6.40;99.90
4175;DHT22;2101;48.290;14.382;2024-02-04T00:57:52;6.30;99.90
4175;DHT22;2101;48.290;14.382;2024-02-04T01:00:25;6.40;99.90
4175;DHT22;2101;48.290;14.382;2024-02-04T18:29:10;9.20;99.90
4175;DHT22;2101;48.290;14.382;2024-02-04T18:36:22;9.30;99.90
4175;DHT22;2101;48.290;14.382;2024-02-04T18:39:38;9.30;99.90
4175;DHT22;2101;48.290;14.382;2024-02-04T18:42:11;9.30;99.90
4175;DHT22;2101;48.290;14.382;2024-02-04T18:45:15;9.40;99.90
4175;DHT22;2101;48.290;14.382;2024-02-04T18:47:44;9.40;99.90
4175;DHT22;2101;48.290;14.382;2024-02-04T18:50:53;9.40;99.90
4175;DHT22;2101;48.290;14.382;2024-02-04T18:53:29;9.40;99.90
4175;DHT22;2101;48.290;14.382;2024-02-04T18:56:21;9.50;99.90
4175;DHT22;2101;48.290;14.382;2024-02-04T19:10:12;9.60;99.90
4175;DHT22;2101;48.290;14.382;2024-02-04T19:22:19;9.60;99.90
4175;DHT22;2101;48.290;14.382;2024-02-04T19:25:39;9.60;99.90
4175;DHT22;2101;48.290;14.382;2024-02-04T19:29:09;9.60;99.90
4175;DHT22;2101;48.290;14.382;2024-02-04T19:31:56;9.60;99.90
4175;DHT22;2101;48.290;14.382;2024-02-04T19:34:31;9.70;99.90
4175;DHT22;2101;48.290;14.382;2024-02-04T19:37:12;9.70;99.90
4175;DHT22;2101;48.290;14.382;2024-02-04T19:39:47;9.70;99.90
4175;DHT22;2101;48.290;14.382;2024-02-04T19:43:15;9.70;99.90
4175;DHT22;2101;48.290;14.382;2024-02-04T19:46:16;9.80;99.90
4175;DHT22;2101;48.290;14.382;2024-02-04T19:49:09;9.70;99.90
4175;DHT22;2101;48.290;14.382;2024-02-04T19:51:47;9.70;99.90
4175;DHT22;2101;48.290;14.382;2024-02-04T19:55:00;9.70;99.90
4175;DHT22;2101;48.290;14.382;2024-02-04T19:58:14;9.70;99.90
4175;DHT22;2101;48.290;14.382;2024-02-04T20:12:01;9.80;99.90
4175;DHT22;2101;48.290;14.382;2024-02-04T20:14:29;9.80;99.90
4175;DHT22;2101;48.290;14.382;2024-02-04T20:16:55;9.80;99.90
4175;DHT22;2101;48.290;14.382;2024-02-04T20:19:21;9.80;99.90
4175;DHT22;2101;48.290;14.382;2024-02-04T20:21:50;9.90;99.90
4175;DHT22;2101;48.290;14.382;2024-02-04T20:25:00;9.70;99.90
4175;DHT22;2101;48.290;14.382;2024-02-04T20:39:57;9.60;99.90
4175;DHT22;2101;48.290;14.382;2024-02-04T20:42:42;9.50;99.90
